sensor_id;sensor_type;location;lat;lon;timestamp;P1;durP1;ratioP1;P2;durP2;ratioP2
9763;SDS011;4921;43.214;27.936;2022-07-29T00:00:48;8.33;;;4.00;;
9763;SDS011;4921;43.214;27.936;2022-07-29T00:03:15;8.63;;;4.43;;
9763;SDS011;4921;43.214;27.936;2022-07-29T00:05:42;4.40;;;4.10;;
9763;SDS011;4921;43.214;27.936;2022-07-29T00:08:09;7.83;;;4.53;;
9763;SDS011;4921;43.214;27.936;2022-07-29T00:10:37;6.20;;;4.27;;
9763;SDS011;4921;43.214;27.936;2022-07-29T00:13:04;5.13;;;3.60;;
9763;SDS011;4921;43.214;27.936;2022-07-29T00:15:31;5.30;;;4.23;;
9763;SDS011;4921;43.214;27.936;2022-07-29T00:17:58;7.37;;;4.60;;
9763;SDS011;4921;43.214;27.936;2022-07-29T00:20:26;6.30;;;4.03;;
9763;SDS011;4921;43.214;27.936;2022-07-29T00:22:53;6.37;;;4.90;;
9763;SDS011;4921;43.214;27.936;2022-07-29T00:25:19;6.87;;;4.50;;
9763;SDS011;4921;43.214;27.936;2022-07-29T00:27:48;6.03;;;4.50;;
9763;SDS011;4921;43.214;27.936;2022-07-29T00:30:15;7.90;;;4.43;;
9763;SDS011;4921;43.214;27.936;2022-07-29T00:32:42;5.77;;;4.10;;
9763;SDS011;4921;43.214;27.936;2022-07-29T00:35:09;5.83;;;3.90;;
9763;SDS011;4921;43.214;27.936;2022-07-29T00:37:53;6.33;;;4.53;;
9763;SDS011;4921;43.214;27.936;2022-07-29T00:40:20;8.03;;;4.53;;
9763;SDS011;4921;43.214;27.936;2022-07-29T00:42:51;5.07;;;4.37;;
9763;SDS011;4921;43.214;27.936;2022-07-29T00:45:18;9.63;;;4.60;;
9763;SDS011;4921;43.214;27.936;2022-07-29T00:47:47;6.83;;;4.17;;
9763;SDS011;4921;43.214;27.936;2022-07-29T00:50:14;4.10;;;3.63;;
9763;SDS011;4921;43.214;27.936;2022-07-29T00:52:41;6.23;;;4.20;;
9763;SDS011;4921;43.214;27.936;2022-07-29T00:55:10;4.50;;;3.80;;
9763;SDS011;4921;43.214;27.936;2022-07-29T00:57:38;5.20;;;4.00;;
9763;SDS011;4921;43.214;27.936;2022-07-29T01:00:10;5.67;;;4.00;;
9763;SDS011;4921;43.214;27.936;2022-07-29T01:02:38;6.83;;;3.57;;
9763;SDS011;4921;43.214;27.936;2022-07-29T01:05:06;4.53;;;3.40;;
9763;SDS011;4921;43.214;27.936;2022-07-29T01:07:33;6.47;;;3.50;;
9763;SDS011;4921;43.214;27.936;2022-07-29T01:10:02;4.67;;;3.50;;
9763;SDS011;4921;43.214;27.936;2022-07-29T01:12:30;4.50;;;3.90;;
9763;SDS011;4921;43.214;27.936;2022-07-29T01:15:01;6.30;;;3.80;;
9763;SDS011;4921;43.214;27.936;2022-07-29T01:17:31;5.00;;;3.70;;
9763;SDS011;4921;43.214;27.936;2022-07-29T01:20:03;5.43;;;3.80;;
9763;SDS011;4921;43.214;27.936;2022-07-29T01:22:40;5.80;;;3.57;;
9763;SDS011;4921;43.214;27.936;2022-07-29T01:25:30;10.33;;;4.33;;
9763;SDS011;4921;43.214;27.936;2022-07-29T01:28:17;5.97;;;3.83;;
9763;SDS011;4921;43.214;27.936;2022-07-29T01:31:13;6.77;;;4.23;;
9763;SDS011;4921;43.214;27.936;2022-07-29T01:33:43;11.57;;;4.13;;
9763;SDS011;4921;43.214;27.936;2022-07-29T01:36:16;6.77;;;4.27;;
9763;SDS011;4921;43.214;27.936;2022-07-29T01:38:50;7.90;;;4.47;;
9763;SDS011;4921;43.214;27.936;2022-07-29T01:41:24;7.13;;;4.83;;
9763;SDS011;4921;43.214;27.936;2022-07-29T01:43:57;12.73;;;5.73;;
9763;SDS011;4921;43.214;27.936;2022-07-29T01:46:30;11.57;;;6.70;;
9763;SDS011;4921;43.214;27.936;2022-07-29T01:49:02;12.23;;;6.27;;
9763;SDS011;4921;43.214;27.936;2022-07-29T01:51:35;12.67;;;7.00;;
9763;SDS011;4921;43.214;27.936;2022-07-29T01:54:08;12.43;;;7.63;;
9763;SDS011;4921;43.214;27.936;2022-07-29T01:56:39;10.43;;;7.07;;
9763;SDS011;4921;43.214;27.936;2022-07-29T01:59:10;9.70;;;6.37;;
9763;SDS011;4921;43.214;27.936;2022-07-29T02:01:38;12.87;;;7.00;;
9763;SDS011;4921;43.214;27.936;2022-07-29T02:04:07;15.10;;;7.17;;
9763;SDS011;4921;43.214;27.936;2022-07-29T02:06:37;16.67;;;7.40;;
9763;SDS011;4921;43.214;27.936;2022-07-29T02:09:07;13.60;;;7.60;;
9763;SDS011;4921;43.214;27.936;2022-07-29T02:11:36;13.03;;;8.13;;
9763;SDS011;4921;43.214;27.936;2022-07-29T02:14:04;16.57;;;8.37;;
9763;SDS011;4921;43.214;27.936;2022-07-29T02:16:34;16.17;;;8.00;;
9763;SDS011;4921;43.214;27.936;2022-07-29T02:19:04;9.90;;;7.50;;
9763;SDS011;4921;43.214;27.936;2022-07-29T02:21:33;12.30;;;7.23;;
9763;SDS011;4921;43.214;27.936;2022-07-29T02:24:01;9.10;;;6.43;;
9763;SDS011;4921;43.214;27.936;2022-07-29T02:26:31;13.27;;;7.37;;
9763;SDS011;4921;43.214;27.936;2022-07-29T02:28:59;15.73;;;7.57;;
9763;SDS011;4921;43.214;27.936;2022-07-29T02:31:30;17.20;;;8.30;;
9763;SDS011;4921;43.214;27.936;2022-07-29T02:34:02;14.70;;;6.70;;
9763;SDS011;4921;43.214;27.936;2022-07-29T02:36:32;14.47;;;8.37;;
9763;SDS011;4921;43.214;27.936;2022-07-29T02:39:00;15.53;;;7.97;;
9763;SDS011;4921;43.214;27.936;2022-07-29T02:41:30;13.97;;;8.30;;
9763;SDS011;4921;43.214;27.936;2022-07-29T02:44:06;13.43;;;7.83;;
9763;SDS011;4921;43.214;27.936;2022-07-29T02:46:36;16.23;;;8.77;;
9763;SDS011;4921;43.214;27.936;2022-07-29T02:49:12;15.03;;;7.67;;
9763;SDS011;4921;43.214;27.936;2022-07-29T02:51:43;13.47;;;7.63;;
9763;SDS011;4921;43.214;27.936;2022-07-29T02:54:14;17.37;;;9.03;;
9763;SDS011;4921;43.214;27.936;2022-07-29T02:56:48;13.13;;;8.43;;
9763;SDS011;4921;43.214;27.936;2022-07-29T02:59:22;16.30;;;8.30;;
9763;SDS011;4921;43.214;27.936;2022-07-29T03:01:52;18.30;;;8.47;;
9763;SDS011;4921;43.214;27.936;2022-07-29T03:04:23;11.57;;;8.23;;
9763;SDS011;4921;43.214;27.936;2022-07-29T03:06:53;15.43;;;7.67;;
9763;SDS011;4921;43.214;27.936;2022-07-29T03:09:24;15.23;;;6.70;;
9763;SDS011;4921;43.214;27.936;2022-07-29T03:11:53;12.57;;;6.80;;
9763;SDS011;4921;43.214;27.936;2022-07-29T03:14:20;12.80;;;7.70;;
9763;SDS011;4921;43.214;27.936;2022-07-29T03:16:49;18.60;;;8.33;;
9763;SDS011;4921;43.214;27.936;2022-07-29T03:19:17;16.13;;;8.40;;
9763;SDS011;4921;43.214;27.936;2022-07-29T03:21:46;15.40;;;7.80;;
9763;SDS011;4921;43.214;27.936;2022-07-29T03:24:26;20.30;;;8.30;;
9763;SDS011;4921;43.214;27.936;2022-07-29T03:26:54;16.80;;;8.27;;
9763;SDS011;4921;43.214;27.936;2022-07-29T03:29:22;13.40;;;7.23;;
9763;SDS011;4921;43.214;27.936;2022-07-29T03:31:49;18.10;;;8.60;;
9763;SDS011;4921;43.214;27.936;2022-07-29T03:34:15;11.87;;;7.57;;
9763;SDS011;4921;43.214;27.936;2022-07-29T03:36:42;19.67;;;9.20;;
9763;SDS011;4921;43.214;27.936;2022-07-29T03:39:11;15.53;;;9.13;;
9763;SDS011;4921;43.214;27.936;2022-07-29T03:41:42;22.03;;;8.43;;
9763;SDS011;4921;43.214;27.936;2022-07-29T03:44:10;15.57;;;8.53;;
9763;SDS011;4921;43.214;27.936;2022-07-29T03:46:38;19.23;;;8.47;;
9763;SDS011;4921;43.214;27.936;2022-07-29T03:49:08;13.23;;;7.33;;
9763;SDS011;4921;43.214;27.936;2022-07-29T03:51:37;19.20;;;7.90;;
9763;SDS011;4921;43.214;27.936;2022-07-29T03:54:05;14.00;;;7.77;;
9763;SDS011;4921;43.214;27.936;2022-07-29T03:56:35;14.63;;;8.30;;
9763;SDS011;4921;43.214;27.936;2022-07-29T03:59:06;17.97;;;8.83;;
9763;SDS011;4921;43.214;27.936;2022-07-29T04:01:34;15.80;;;7.53;;
9763;SDS011;4921;43.214;27.936;2022-07-29T04:04:01;17.50;;;8.70;;
9763;SDS011;4921;43.214;27.936;2022-07-29T04:06:36;14.20;;;7.87;;
9763;SDS011;4921;43.214;27.936;2022-07-29T04:09:04;13.47;;;8.33;;
9763;SDS011;4921;43.214;27.936;2022-07-29T04:11:31;15.00;;;8.13;;
9763;SDS011;4921;43.214;27.936;2022-07-29T04:14:00;17.53;;;8.87;;
9763;SDS011;4921;43.214;27.936;2022-07-29T04:16:27;13.63;;;8.43;;
9763;SDS011;4921;43.214;27.936;2022-07-29T04:18:54;11.40;;;7.23;;
9763;SDS011;4921;43.214;27.936;2022-07-29T04:21:21;13.87;;;7.60;;
9763;SDS011;4921;43.214;27.936;2022-07-29T04:23:48;15.37;;;8.40;;
9763;SDS011;4921;43.214;27.936;2022-07-29T04:26:15;16.23;;;8.30;;
9763;SDS011;4921;43.214;27.936;2022-07-29T04:28:42;12.07;;;7.27;;
9763;SDS011;4921;43.214;27.936;2022-07-29T04:31:11;14.87;;;8.33;;
9763;SDS011;4921;43.214;27.936;2022-07-29T04:33:39;11.63;;;6.97;;
9763;SDS011;4921;43.214;27.936;2022-07-29T04:36:06;14.53;;;7.30;;
9763;SDS011;4921;43.214;27.936;2022-07-29T04:38:33;17.00;;;7.60;;
9763;SDS011;4921;43.214;27.936;2022-07-29T04:41:00;14.27;;;7.20;;
9763;SDS011;4921;43.214;27.936;2022-07-29T04:43:27;16.23;;;7.43;;
9763;SDS011;4921;43.214;27.936;2022-07-29T04:45:54;17.70;;;7.17;;
9763;SDS011;4921;43.214;27.936;2022-07-29T04:48:22;16.93;;;8.20;;
9763;SDS011;4921;43.214;27.936;2022-07-29T04:50:49;10.47;;;6.57;;
9763;SDS011;4921;43.214;27.936;2022-07-29T04:53:16;10.90;;;6.70;;
9763;SDS011;4921;43.214;27.936;2022-07-29T04:55:43;11.37;;;6.67;;
9763;SDS011;4921;43.214;27.936;2022-07-29T04:58:10;13.33;;;6.67;;
9763;SDS011;4921;43.214;27.936;2022-07-29T05:00:38;14.57;;;7.27;;
9763;SDS011;4921;43.214;27.936;2022-07-29T05:03:05;11.87;;;6.30;;
9763;SDS011;4921;43.214;27.936;2022-07-29T05:05:34;9.47;;;6.73;;
9763;SDS011;4921;43.214;27.936;2022-07-29T05:08:01;13.13;;;6.37;;
9763;SDS011;4921;43.214;27.936;2022-07-29T05:10:28;12.27;;;6.07;;
9763;SDS011;4921;43.214;27.936;2022-07-29T05:13:04;10.23;;;5.47;;
9763;SDS011;4921;43.214;27.936;2022-07-29T05:15:31;11.13;;;6.13;;
9763;SDS011;4921;43.214;27.936;2022-07-29T05:17:58;10.80;;;6.20;;
9763;SDS011;4921;43.214;27.936;2022-07-29T05:20:26;14.37;;;7.40;;
9763;SDS011;4921;43.214;27.936;2022-07-29T05:22:53;12.80;;;7.40;;
9763;SDS011;4921;43.214;27.936;2022-07-29T05:25:20;12.60;;;7.07;;
9763;SDS011;4921;43.214;27.936;2022-07-29T05:27:48;15.07;;;7.30;;
9763;SDS011;4921;43.214;27.936;2022-07-29T05:30:16;16.23;;;7.00;;
9763;SDS011;4921;43.214;27.936;2022-07-29T05:32:43;13.13;;;6.70;;
9763;SDS011;4921;43.214;27.936;2022-07-29T05:35:18;14.63;;;6.60;;
9763;SDS011;4921;43.214;27.936;2022-07-29T05:37:45;11.50;;;6.83;;
9763;SDS011;4921;43.214;27.936;2022-07-29T05:40:12;10.03;;;6.13;;
9763;SDS011;4921;43.214;27.936;2022-07-29T05:42:39;11.07;;;6.47;;
9763;SDS011;4921;43.214;27.936;2022-07-29T05:45:07;15.13;;;7.20;;
9763;SDS011;4921;43.214;27.936;2022-07-29T05:47:35;10.07;;;5.97;;
9763;SDS011;4921;43.214;27.936;2022-07-29T05:50:03;9.80;;;6.33;;
9763;SDS011;4921;43.214;27.936;2022-07-29T05:52:30;8.13;;;5.73;;
9763;SDS011;4921;43.214;27.936;2022-07-29T05:54:57;9.07;;;5.50;;
9763;SDS011;4921;43.214;27.936;2022-07-29T05:57:27;10.80;;;6.03;;
9763;SDS011;4921;43.214;27.936;2022-07-29T05:59:54;12.67;;;6.63;;
9763;SDS011;4921;43.214;27.936;2022-07-29T06:02:21;9.47;;;5.83;;
9763;SDS011;4921;43.214;27.936;2022-07-29T06:04:50;14.10;;;5.70;;
9763;SDS011;4921;43.214;27.936;2022-07-29T06:07:26;10.00;;;6.03;;
9763;SDS011;4921;43.214;27.936;2022-07-29T06:09:53;9.50;;;5.50;;
9763;SDS011;4921;43.214;27.936;2022-07-29T06:12:19;12.10;;;5.53;;
9763;SDS011;4921;43.214;27.936;2022-07-29T06:14:46;11.93;;;5.20;;
9763;SDS011;4921;43.214;27.936;2022-07-29T06:17:13;7.93;;;4.70;;
9763;SDS011;4921;43.214;27.936;2022-07-29T06:19:42;6.13;;;4.63;;
9763;SDS011;4921;43.214;27.936;2022-07-29T06:22:10;9.23;;;4.70;;
9763;SDS011;4921;43.214;27.936;2022-07-29T06:24:37;12.33;;;4.90;;
9763;SDS011;4921;43.214;27.936;2022-07-29T06:27:08;9.80;;;4.50;;
9763;SDS011;4921;43.214;27.936;2022-07-29T06:29:36;6.20;;;4.40;;
9763;SDS011;4921;43.214;27.936;2022-07-29T06:32:03;12.50;;;4.63;;
9763;SDS011;4921;43.214;27.936;2022-07-29T06:34:31;8.40;;;4.47;;
9763;SDS011;4921;43.214;27.936;2022-07-29T06:36:58;9.87;;;4.70;;
9763;SDS011;4921;43.214;27.936;2022-07-29T06:39:28;8.87;;;4.30;;
9763;SDS011;4921;43.214;27.936;2022-07-29T06:41:55;6.17;;;4.90;;
9763;SDS011;4921;43.214;27.936;2022-07-29T06:44:22;7.50;;;4.53;;
9763;SDS011;4921;43.214;27.936;2022-07-29T06:46:49;9.93;;;4.70;;
9763;SDS011;4921;43.214;27.936;2022-07-29T06:49:16;7.53;;;4.60;;
9763;SDS011;4921;43.214;27.936;2022-07-29T06:51:43;13.47;;;4.47;;
9763;SDS011;4921;43.214;27.936;2022-07-29T06:54:10;9.23;;;4.23;;
9763;SDS011;4921;43.214;27.936;2022-07-29T06:56:38;6.20;;;3.97;;
9763;SDS011;4921;43.214;27.936;2022-07-29T06:59:07;11.20;;;4.20;;
9763;SDS011;4921;43.214;27.936;2022-07-29T07:01:35;8.40;;;4.47;;
9763;SDS011;4921;43.214;27.936;2022-07-29T07:04:03;8.87;;;4.30;;
9763;SDS011;4921;43.214;27.936;2022-07-29T07:06:30;8.70;;;4.17;;
9763;SDS011;4921;43.214;27.936;2022-07-29T07:08:57;4.97;;;3.80;;
9763;SDS011;4921;43.214;27.936;2022-07-29T07:11:23;8.50;;;3.70;;
9763;SDS011;4921;43.214;27.936;2022-07-29T07:13:52;6.60;;;3.60;;
9763;SDS011;4921;43.214;27.936;2022-07-29T07:16:19;4.43;;;3.13;;
9763;SDS011;4921;43.214;27.936;2022-07-29T07:18:46;7.10;;;3.60;;
9763;SDS011;4921;43.214;27.936;2022-07-29T07:21:13;5.23;;;3.03;;
9763;SDS011;4921;43.214;27.936;2022-07-29T07:23:40;4.13;;;3.20;;
9763;SDS011;4921;43.214;27.936;2022-07-29T07:26:07;6.40;;;4.00;;
9763;SDS011;4921;43.214;27.936;2022-07-29T07:28:34;8.20;;;3.20;;
9763;SDS011;4921;43.214;27.936;2022-07-29T07:31:02;5.10;;;3.07;;
9763;SDS011;4921;43.214;27.936;2022-07-29T07:33:29;6.03;;;3.30;;
9763;SDS011;4921;43.214;27.936;2022-07-29T07:35:56;5.63;;;3.20;;
9763;SDS011;4921;43.214;27.936;2022-07-29T07:38:23;3.30;;;3.00;;
9763;SDS011;4921;43.214;27.936;2022-07-29T07:40:50;5.50;;;2.80;;
9763;SDS011;4921;43.214;27.936;2022-07-29T07:43:17;5.03;;;3.20;;
9763;SDS011;4921;43.214;27.936;2022-07-29T07:45:44;4.07;;;2.77;;
9763;SDS011;4921;43.214;27.936;2022-07-29T07:48:12;5.63;;;2.60;;
9763;SDS011;4921;43.214;27.936;2022-07-29T07:50:39;2.77;;;2.30;;
9763;SDS011;4921;43.214;27.936;2022-07-29T07:53:06;2.47;;;2.33;;
9763;SDS011;4921;43.214;27.936;2022-07-29T07:55:33;4.87;;;2.63;;
9763;SDS011;4921;43.214;27.936;2022-07-29T07:58:05;3.60;;;3.30;;
9763;SDS011;4921;43.214;27.936;2022-07-29T08:00:32;4.13;;;2.70;;
9763;SDS011;4921;43.214;27.936;2022-07-29T08:02:59;6.63;;;2.50;;
9763;SDS011;4921;43.214;27.936;2022-07-29T08:05:27;8.10;;;2.77;;
9763;SDS011;4921;43.214;27.936;2022-07-29T08:07:54;4.90;;;2.77;;
9763;SDS011;4921;43.214;27.936;2022-07-29T08:10:21;5.97;;;2.70;;
9763;SDS011;4921;43.214;27.936;2022-07-29T08:13:02;4.30;;;2.30;;
9763;SDS011;4921;43.214;27.936;2022-07-29T08:15:29;3.30;;;2.43;;
9763;SDS011;4921;43.214;27.936;2022-07-29T08:17:56;6.97;;;2.57;;
9763;SDS011;4921;43.214;27.936;2022-07-29T08:20:23;4.47;;;2.50;;
9763;SDS011;4921;43.214;27.936;2022-07-29T08:22:52;2.60;;;2.40;;
9763;SDS011;4921;43.214;27.936;2022-07-29T08:25:19;3.97;;;2.30;;
9763;SDS011;4921;43.214;27.936;2022-07-29T08:27:46;3.10;;;2.60;;
9763;SDS011;4921;43.214;27.936;2022-07-29T08:30:13;3.30;;;2.40;;
9763;SDS011;4921;43.214;27.936;2022-07-29T08:32:40;2.63;;;2.43;;
9763;SDS011;4921;43.214;27.936;2022-07-29T08:35:08;2.60;;;2.40;;
9763;SDS011;4921;43.214;27.936;2022-07-29T08:37:35;2.53;;;2.33;;
9763;SDS011;4921;43.214;27.936;2022-07-29T08:40:03;2.13;;;2.03;;
9763;SDS011;4921;43.214;27.936;2022-07-29T08:42:31;2.57;;;2.40;;
9763;SDS011;4921;43.214;27.936;2022-07-29T08:44:58;2.60;;;2.40;;
9763;SDS011;4921;43.214;27.936;2022-07-29T08:47:26;4.60;;;2.30;;
9763;SDS011;4921;43.214;27.936;2022-07-29T08:49:54;2.30;;;2.17;;
9763;SDS011;4921;43.214;27.936;2022-07-29T08:52:21;3.00;;;2.33;;
9763;SDS011;4921;43.214;27.936;2022-07-29T08:54:52;2.40;;;2.20;;
9763;SDS011;4921;43.214;27.936;2022-07-29T08:57:20;2.60;;;2.40;;
9763;SDS011;4921;43.214;27.936;2022-07-29T08:59:48;4.57;;;2.40;;
9763;SDS011;4921;43.214;27.936;2022-07-29T09:02:19;4.23;;;2.60;;
9763;SDS011;4921;43.214;27.936;2022-07-29T09:04:47;2.10;;;2.00;;
9763;SDS011;4921;43.214;27.936;2022-07-29T09:07:14;2.60;;;2.40;;
9763;SDS011;4921;43.214;27.936;2022-07-29T09:09:43;2.53;;;2.33;;
9763;SDS011;4921;43.214;27.936;2022-07-29T09:12:10;2.43;;;2.33;;
9763;SDS011;4921;43.214;27.936;2022-07-29T09:14:40;4.73;;;2.60;;
9763;SDS011;4921;43.214;27.936;2022-07-29T09:17:07;4.93;;;2.47;;
9763;SDS011;4921;43.214;27.936;2022-07-29T09:19:36;3.40;;;2.20;;
9763;SDS011;4921;43.214;27.936;2022-07-29T09:22:04;4.00;;;2.50;;
9763;SDS011;4921;43.214;27.936;2022-07-29T09:24:41;3.00;;;2.53;;
9763;SDS011;4921;43.214;27.936;2022-07-29T09:27:19;5.90;;;2.23;;
9763;SDS011;4921;43.214;27.936;2022-07-29T09:29:56;2.23;;;2.13;;
9763;SDS011;4921;43.214;27.936;2022-07-29T09:32:25;2.93;;;2.07;;
9763;SDS011;4921;43.214;27.936;2022-07-29T09:37:41;2.30;;;2.10;;
9763;SDS011;4921;43.214;27.936;2022-07-29T09:40:11;2.90;;;2.70;;
9763;SDS011;4921;43.214;27.936;2022-07-29T09:42:39;2.77;;;2.57;;
9763;SDS011;4921;43.214;27.936;2022-07-29T09:45:07;3.30;;;2.73;;
9763;SDS011;4921;43.214;27.936;2022-07-29T09:47:41;2.70;;;2.50;;
9763;SDS011;4921;43.214;27.936;2022-07-29T09:50:12;3.07;;;2.50;;
9763;SDS011;4921;43.214;27.936;2022-07-29T09:52:46;5.57;;;2.30;;
9763;SDS011;4921;43.214;27.936;2022-07-29T09:55:13;2.87;;;2.37;;
9763;SDS011;4921;43.214;27.936;2022-07-29T09:57:41;2.50;;;2.30;;
9763;SDS011;4921;43.214;27.936;2022-07-29T10:00:11;3.93;;;2.50;;
9763;SDS011;4921;43.214;27.936;2022-07-29T10:02:40;2.80;;;2.60;;
9763;SDS011;4921;43.214;27.936;2022-07-29T10:05:19;4.30;;;2.90;;
9763;SDS011;4921;43.214;27.936;2022-07-29T10:07:48;2.20;;;2.10;;
9763;SDS011;4921;43.214;27.936;2022-07-29T10:10:20;4.07;;;2.40;;
9763;SDS011;4921;43.214;27.936;2022-07-29T10:12:49;3.00;;;2.30;;
9763;SDS011;4921;43.214;27.936;2022-07-29T10:15:22;2.87;;;2.67;;
9763;SDS011;4921;43.214;27.936;2022-07-29T10:17:50;4.90;;;2.27;;
9763;SDS011;4921;43.214;27.936;2022-07-29T10:20:18;2.40;;;2.20;;
9763;SDS011;4921;43.214;27.936;2022-07-29T10:22:46;2.47;;;2.27;;
9763;SDS011;4921;43.214;27.936;2022-07-29T10:25:13;3.27;;;2.73;;
9763;SDS011;4921;43.214;27.936;2022-07-29T10:27:41;4.13;;;2.30;;
9763;SDS011;4921;43.214;27.936;2022-07-29T10:30:08;2.53;;;2.30;;
9763;SDS011;4921;43.214;27.936;2022-07-29T10:32:42;3.60;;;2.60;;
9763;SDS011;4921;43.214;27.936;2022-07-29T10:35:39;2.40;;;2.30;;
9763;SDS011;4921;43.214;27.936;2022-07-29T10:38:24;12.57;;;7.40;;
9763;SDS011;4921;43.214;27.936;2022-07-29T10:41:02;10.07;;;6.57;;
9763;SDS011;4921;43.214;27.936;2022-07-29T10:43:54;5.27;;;2.70;;
9763;SDS011;4921;43.214;27.936;2022-07-29T10:46:24;11.43;;;7.83;;
9763;SDS011;4921;43.214;27.936;2022-07-29T10:49:06;3.30;;;2.83;;
9763;SDS011;4921;43.214;27.936;2022-07-29T10:51:57;2.83;;;2.50;;
9763;SDS011;4921;43.214;27.936;2022-07-29T10:54:36;9.13;;;7.07;;
9763;SDS011;4921;43.214;27.936;2022-07-29T10:57:22;5.17;;;2.63;;
9763;SDS011;4921;43.214;27.936;2022-07-29T11:02:57;2.63;;;2.43;;
9763;SDS011;4921;43.214;27.936;2022-07-29T11:05:28;2.10;;;2.00;;
9763;SDS011;4921;43.214;27.936;2022-07-29T11:10:51;2.40;;;2.30;;
9763;SDS011;4921;43.214;27.936;2022-07-29T11:16:20;2.97;;;2.27;;
9763;SDS011;4921;43.214;27.936;2022-07-29T11:21:48;5.73;;;3.53;;
9763;SDS011;4921;43.214;27.936;2022-07-29T11:24:17;4.73;;;2.60;;
9763;SDS011;4921;43.214;27.936;2022-07-29T11:29:34;3.80;;;2.53;;
9763;SDS011;4921;43.214;27.936;2022-07-29T11:32:08;2.70;;;2.43;;
9763;SDS011;4921;43.214;27.936;2022-07-29T11:34:36;4.80;;;2.70;;
9763;SDS011;4921;43.214;27.936;2022-07-29T11:37:19;2.93;;;2.47;;
9763;SDS011;4921;43.214;27.936;2022-07-29T11:42:40;4.60;;;3.00;;
9763;SDS011;4921;43.214;27.936;2022-07-29T11:45:15;3.90;;;2.83;;
9763;SDS011;4921;43.214;27.936;2022-07-29T11:47:48;2.90;;;2.60;;
9763;SDS011;4921;43.214;27.936;2022-07-29T11:50:18;3.07;;;2.60;;
9763;SDS011;4921;43.214;27.936;2022-07-29T11:52:55;2.93;;;2.23;;
9763;SDS011;4921;43.214;27.936;2022-07-29T11:55:23;4.47;;;2.60;;
9763;SDS011;4921;43.214;27.936;2022-07-29T11:57:51;3.03;;;2.80;;
9763;SDS011;4921;43.214;27.936;2022-07-29T12:00:23;3.40;;;2.50;;
9763;SDS011;4921;43.214;27.936;2022-07-29T12:02:56;5.33;;;2.70;;
9763;SDS011;4921;43.214;27.936;2022-07-29T12:05:31;4.07;;;2.60;;
9763;SDS011;4921;43.214;27.936;2022-07-29T12:08:05;4.60;;;2.50;;
9763;SDS011;4921;43.214;27.936;2022-07-29T12:10:34;3.37;;;2.50;;
9763;SDS011;4921;43.214;27.936;2022-07-29T12:13:01;4.00;;;2.77;;
9763;SDS011;4921;43.214;27.936;2022-07-29T12:15:29;5.77;;;3.03;;
9763;SDS011;4921;43.214;27.936;2022-07-29T12:17:55;3.07;;;2.77;;
9763;SDS011;4921;43.214;27.936;2022-07-29T12:20:23;4.80;;;3.00;;
9763;SDS011;4921;43.214;27.936;2022-07-29T12:22:51;8.07;;;2.73;;
9763;SDS011;4921;43.214;27.936;2022-07-29T12:25:21;3.97;;;2.97;;
9763;SDS011;4921;43.214;27.936;2022-07-29T12:27:59;7.83;;;3.20;;
9763;SDS011;4921;43.214;27.936;2022-07-29T12:30:34;3.13;;;2.90;;
9763;SDS011;4921;43.214;27.936;2022-07-29T12:33:09;3.80;;;2.80;;
9763;SDS011;4921;43.214;27.936;2022-07-29T12:35:41;3.23;;;2.50;;
9763;SDS011;4921;43.214;27.936;2022-07-29T12:38:10;4.30;;;3.17;;
9763;SDS011;4921;43.214;27.936;2022-07-29T12:40:39;3.30;;;3.00;;
9763;SDS011;4921;43.214;27.936;2022-07-29T12:43:08;5.37;;;2.87;;
9763;SDS011;4921;43.214;27.936;2022-07-29T12:45:36;3.50;;;3.20;;
9763;SDS011;4921;43.214;27.936;2022-07-29T12:48:03;4.23;;;3.00;;
9763;SDS011;4921;43.214;27.936;2022-07-29T12:50:33;8.40;;;3.27;;
9763;SDS011;4921;43.214;27.936;2022-07-29T12:53:11;4.33;;;3.13;;
9763;SDS011;4921;43.214;27.936;2022-07-29T12:55:43;3.47;;;2.83;;
9763;SDS011;4921;43.214;27.936;2022-07-29T12:58:14;3.97;;;2.50;;
9763;SDS011;4921;43.214;27.936;2022-07-29T13:00:59;4.43;;;2.90;;
9763;SDS011;4921;43.214;27.936;2022-07-29T13:03:46;4.60;;;2.67;;
9763;SDS011;4921;43.214;27.936;2022-07-29T13:06:27;4.53;;;2.73;;
9763;SDS011;4921;43.214;27.936;2022-07-29T13:08:58;3.23;;;2.97;;
9763;SDS011;4921;43.214;27.936;2022-07-29T13:11:35;3.10;;;2.80;;
9763;SDS011;4921;43.214;27.936;2022-07-29T13:14:03;3.40;;;2.93;;
9763;SDS011;4921;43.214;27.936;2022-07-29T13:16:30;3.43;;;2.87;;
9763;SDS011;4921;43.214;27.936;2022-07-29T13:19:04;3.33;;;2.83;;
9763;SDS011;4921;43.214;27.936;2022-07-29T13:21:32;3.90;;;2.90;;
9763;SDS011;4921;43.214;27.936;2022-07-29T13:23:59;5.33;;;3.07;;
9763;SDS011;4921;43.214;27.936;2022-07-29T13:26:26;4.27;;;3.20;;
9763;SDS011;4921;43.214;27.936;2022-07-29T13:28:55;3.33;;;2.80;;
9763;SDS011;4921;43.214;27.936;2022-07-29T13:31:22;4.47;;;2.77;;
9763;SDS011;4921;43.214;27.936;2022-07-29T13:33:49;3.87;;;3.10;;
9763;SDS011;4921;43.214;27.936;2022-07-29T13:36:16;2.93;;;2.77;;
9763;SDS011;4921;43.214;27.936;2022-07-29T13:38:43;5.73;;;3.10;;
9763;SDS011;4921;43.214;27.936;2022-07-29T13:41:10;2.80;;;2.60;;
9763;SDS011;4921;43.214;27.936;2022-07-29T13:43:37;5.47;;;3.07;;
9763;SDS011;4921;43.214;27.936;2022-07-29T13:46:05;4.40;;;3.00;;
9763;SDS011;4921;43.214;27.936;2022-07-29T13:48:32;4.37;;;2.93;;
9763;SDS011;4921;43.214;27.936;2022-07-29T13:50:59;2.80;;;2.57;;
9763;SDS011;4921;43.214;27.936;2022-07-29T13:53:27;5.83;;;3.10;;
9763;SDS011;4921;43.214;27.936;2022-07-29T13:55:54;3.87;;;2.80;;
9763;SDS011;4921;43.214;27.936;2022-07-29T13:58:21;3.47;;;3.17;;
9763;SDS011;4921;43.214;27.936;2022-07-29T14:00:48;6.67;;;3.23;;
9763;SDS011;4921;43.214;27.936;2022-07-29T14:03:16;6.37;;;3.30;;
9763;SDS011;4921;43.214;27.936;2022-07-29T14:05:43;3.20;;;3.00;;
9763;SDS011;4921;43.214;27.936;2022-07-29T14:08:10;5.07;;;3.30;;
9763;SDS011;4921;43.214;27.936;2022-07-29T14:10:37;6.23;;;3.57;;
9763;SDS011;4921;43.214;27.936;2022-07-29T14:13:05;4.50;;;3.27;;
9763;SDS011;4921;43.214;27.936;2022-07-29T14:15:31;4.33;;;3.20;;
9763;SDS011;4921;43.214;27.936;2022-07-29T14:17:58;5.73;;;3.27;;
9763;SDS011;4921;43.214;27.936;2022-07-29T14:20:27;5.17;;;3.20;;
9763;SDS011;4921;43.214;27.936;2022-07-29T14:22:54;3.03;;;2.83;;
9763;SDS011;4921;43.214;27.936;2022-07-29T14:25:21;5.47;;;3.67;;
9763;SDS011;4921;43.214;27.936;2022-07-29T14:27:49;5.73;;;3.53;;
9763;SDS011;4921;43.214;27.936;2022-07-29T14:30:15;5.33;;;3.80;;
9763;SDS011;4921;43.214;27.936;2022-07-29T14:32:42;7.37;;;3.63;;
9763;SDS011;4921;43.214;27.936;2022-07-29T14:35:09;6.90;;;3.70;;
9763;SDS011;4921;43.214;27.936;2022-07-29T14:37:38;3.83;;;3.43;;
9763;SDS011;4921;43.214;27.936;2022-07-29T14:40:05;6.00;;;3.43;;
9763;SDS011;4921;43.214;27.936;2022-07-29T14:42:33;5.00;;;3.17;;
9763;SDS011;4921;43.214;27.936;2022-07-29T14:45:01;4.23;;;3.37;;
9763;SDS011;4921;43.214;27.936;2022-07-29T14:47:28;6.50;;;4.07;;
9763;SDS011;4921;43.214;27.936;2022-07-29T14:49:55;4.83;;;4.30;;
9763;SDS011;4921;43.214;27.936;2022-07-29T14:52:22;3.43;;;3.13;;
9763;SDS011;4921;43.214;27.936;2022-07-29T14:54:50;7.67;;;3.50;;
9763;SDS011;4921;43.214;27.936;2022-07-29T14:57:17;5.23;;;3.90;;
9763;SDS011;4921;43.214;27.936;2022-07-29T14:59:44;3.80;;;3.50;;
9763;SDS011;4921;43.214;27.936;2022-07-29T15:02:11;3.67;;;3.30;;
9763;SDS011;4921;43.214;27.936;2022-07-29T15:04:38;8.43;;;3.90;;
9763;SDS011;4921;43.214;27.936;2022-07-29T15:07:05;5.77;;;3.90;;
9763;SDS011;4921;43.214;27.936;2022-07-29T15:09:33;5.63;;;3.60;;
9763;SDS011;4921;43.214;27.936;2022-07-29T15:12:01;3.67;;;3.37;;
9763;SDS011;4921;43.214;27.936;2022-07-29T15:14:29;4.97;;;3.40;;
9763;SDS011;4921;43.214;27.936;2022-07-29T15:16:56;5.27;;;3.67;;
9763;SDS011;4921;43.214;27.936;2022-07-29T15:19:23;7.90;;;4.10;;
9763;SDS011;4921;43.214;27.936;2022-07-29T15:21:50;6.87;;;3.77;;
9763;SDS011;4921;43.214;27.936;2022-07-29T15:24:17;6.40;;;3.87;;
9763;SDS011;4921;43.214;27.936;2022-07-29T15:26:44;4.37;;;3.73;;
9763;SDS011;4921;43.214;27.936;2022-07-29T15:29:13;8.27;;;4.57;;
9763;SDS011;4921;43.214;27.936;2022-07-29T15:31:40;8.13;;;4.27;;